• Join FlightAware (Why Join?)
  • Login
  • US Flag 
02:14AM EDT


 

Airport Tracker/Info


-or-


 

Live Flight TrackerFlight Track Log ✈ QJE1940 ✈ 21-Jun-2013 ✈ YAYE / AYQ - YBAS / ASP

Flight Track Log - Related Links

Times and Time Zones

All times are in EDT time to prevent confusion due to time zone crossing. See the QJE1940 flight status page for this flight to view local times or setup timezone preferences in your user account.

Time Position Orientation Groundspeed Altitude Reporting Facility
EDT Latitude Longitude Course Direction KTS MPH feet Rate Location/Type
09:31PM -25.0457 131.2480 360° North 29,000  Level Aus ATC (Calculated)
09:31PM -25.0457 131.2480 63° Northeast 29,000  Level Aus ATC (Calculated)
09:32PM -25.0037 131.3389 63° Northeast 29,000  Level Aus ATC (Calculated)
09:33PM -24.9616 131.4298 63° Northeast 29,000  Level Aus ATC (Calculated)
09:35PM -24.8958 131.5742 63° Northeast  Level Estimated
09:35PM -24.8350 131.7021 63° Northeast 29,000  Level Aus ATC (Calculated)
09:36PM -24.7926 131.7928 63° Northeast 29,000  Level Aus ATC (Calculated)
09:37PM -24.7503 131.8833 63° Northeast 29,000  Level Aus ATC (Calculated)
09:39PM -24.6676 132.0594 63° Northeast  Level FlightAware Approximate
09:40PM -24.6255 132.1489 63° Northeast  Level FlightAware Approximate
09:41PM -24.5834 132.2383 63° Northeast  Level FlightAware Approximate
09:42PM -24.5412 132.3277 63° Northeast  Level FlightAware Approximate
09:42PM -24.4514 132.5168 242° Southwest 2,800  Level Aus ATC (Calculated)
09:43PM -24.4989 132.4170 63° Northeast  Level FlightAware Approximate
09:44PM -24.5165 132.3801 242° Southwest  Level FlightAware Approximate
09:44PM -24.3643 132.6991 62° Northeast 2,800  Level Aus ATC (Calculated)
09:45PM -24.2770 132.8812 150° Southeast 2,800  Level Aus ATC (Calculated)
09:45PM -24.2770 132.8812 242° Southwest 2,800  Level Aus ATC (Calculated)
09:46PM -24.4480 132.5240 242° Southwest  Level FlightAware Approximate
09:47PM -24.3339 132.7626 242° Southwest  Level FlightAware Approximate
09:48PM -24.3765 132.6737 242° Southwest  Level FlightAware Approximate
09:49PM -24.4190 132.5847 242° Southwest  Level FlightAware Approximate
09:49PM -24.1016 133.2446 64° Northeast 2,800  Level Aus ATC (Calculated)
09:51PM -24.0319 133.4008 62° Northeast  Level Estimated
09:51PM -24.0136 133.4259 62° Northeast 2,800  Level Aus ATC (Calculated)
09:53PM -23.9390 133.5792 62° Northeast  Level FlightAware Approximate
09:53PM -23.8812 133.6975 62° Northeast 2,800  Level Aus ATC (Calculated)
09:53PM -23.8370 133.7879 62° Northeast 2,800  Level Aus ATC (Calculated)
09:55PM -23.7844 133.8952 62° Northeast  Level FlightAware Approximate
09:56PM -23.8067 133.9022 242° Southwest  Level Estimated
09:57PM -23.8067 133.9022 302° West  Level Estimated
09:58PM -23.8067 133.9022 302° West  Level Estimated
09:59PM -23.8067 133.9022 302° West  Level Estimated
10:00PM -23.8067 133.9022 302° West  Level Estimated
10:01PM -23.8067 133.9022 302° West  Level Estimated
10:02PM -23.8067 133.9022 302° West  Level Estimated
10:03PM -23.8067 133.9022 302° West  Level Estimated
10:04PM -23.8067 133.9022 302° West  Level Estimated
10:05PM -23.8067 133.9022 302° West  Level Estimated
10:06PM -23.8067 133.9022 302° West  Level Estimated
10:07PM -23.8067 133.9022 302° West  Level Estimated
10:08PM -23.8083 133.9009 127° Southeast  Level FlightAware Approximate
10:09PM -23.8067 133.9022 127° Southeast  Level Estimated
10:10PM -23.8083 133.9009 127° Southeast  Level FlightAware Approximate
10:11PM -23.8067 133.9022 127° Southeast  Level Estimated
10:12PM -23.8083 133.9009 127° Southeast  Level FlightAware Approximate
10:13PM -23.8067 133.9022 127° Southeast  Level Estimated
10:14PM -23.8083 133.9009 127° Southeast  Level FlightAware Approximate
10:15PM -23.8067 133.9022 127° Southeast  Level Estimated
10:16PM -23.8083 133.9009 127° Southeast  Level FlightAware Approximate
10:17PM -23.8067 133.9022 127° Southeast  Level Estimated
10:18PM -23.8083 133.9009 127° Southeast  Level FlightAware Approximate